Time;durP1;ratioP1;P1;durP2;ratioP2;P2;SDS_P1;SDS_P2;PMS_P1;PMS_P2;Temp;Humidity;BMP_temperature;BMP_pressure;BME280_temperature;BME280_humidity;BME280_pressure;Samples;Min_cycle;Max_cycle;Signal;HPM_P1;HPM_P2
2021/12/08 00:00:41;;;;;;;5.03;2.95;;;-1.20;99.90;;;;;;5071058;28;20059;-83
2021/12/08 00:03:09;;;;;;;3.08;2.70;;;-1.30;99.90;;;;;;5053163;28;20017;-83
2021/12/08 00:05:36;;;;;;;3.15;2.10;;;-1.30;99.90;;;;;;5053471;28;20025;-84
2021/12/08 00:08:05;;;;;;;5.90;2.80;;;-1.30;99.90;;;;;;5070130;28;20061;-83
2021/12/08 00:13:10;;;;;;;3.65;2.53;;;-1.40;99.90;;;;;;5070827;28;20054;-83
2021/12/08 00:15:42;;;;;;;6.85;2.97;;;-1.40;99.90;;;;;;5053143;28;20036;-85
2021/12/08 00:18:11;;;;;;;6.93;3.25;;;-1.40;99.90;;;;;;5070572;28;20476;-83
2021/12/08 00:20:38;;;;;;;4.10;2.33;;;-1.40;99.90;;;;;;5036843;28;20066;-83
2021/12/08 00:23:06;;;;;;;5.32;2.63;;;-1.40;99.90;;;;;;5049996;28;20055;-84
2021/12/08 00:25:33;;;;;;;5.35;2.42;;;-1.40;99.90;;;;;;5047201;28;20033;-84
2021/12/08 00:28:00;;;;;;;5.55;2.72;;;-1.50;99.90;;;;;;5052095;28;20048;-83
2021/12/08 00:30:27;;;;;;;3.45;2.65;;;-1.50;99.90;;;;;;5054666;28;20021;-83
2021/12/08 00:32:55;;;;;;;5.13;3.00;;;-1.50;99.90;;;;;;5057377;28;20029;-83
2021/12/08 00:35:21;;;;;;;5.20;3.35;;;-1.50;99.90;;;;;;5040673;28;20032;-84
2021/12/08 00:37:47;;;;;;;4.13;2.78;;;-1.60;99.90;;;;;;5056776;28;20013;-83
2021/12/08 00:40:16;;;;;;;5.80;2.50;;;-1.60;99.90;;;;;;5061560;28;20039;-83
2021/12/08 00:42:43;;;;;;;5.22;2.70;;;-1.60;99.90;;;;;;5043184;28;20094;-83
2021/12/08 00:45:11;;;;;;;7.35;3.50;;;-1.60;99.90;;;;;;5060568;28;20017;-84
2021/12/08 00:47:38;;;;;;;4.80;2.67;;;-1.60;99.90;;;;;;5039430;28;20037;-84
2021/12/08 00:50:07;;;;;;;6.22;2.80;;;-1.60;99.90;;;;;;5048407;28;20025;-84
2021/12/08 00:52:32;;;;;;;3.92;2.78;;;-1.50;99.90;;;;;;5051097;28;20029;-83
2021/12/08 00:54:59;;;;;;;7.07;3.20;;;-1.50;99.90;;;;;;5069661;28;20031;-83
2021/12/08 00:57:25;;;;;;;4.05;2.70;;;-1.50;99.90;;;;;;5053498;28;20032;-82
2021/12/08 00:59:51;;;;;;;3.67;2.65;;;-1.60;99.90;;;;;;5054437;28;20025;-83
2021/12/08 01:02:17;;;;;;;3.25;2.58;;;-1.60;99.90;;;;;;5073071;28;20097;-82
2021/12/08 01:04:43;;;;;;;4.55;2.90;;;-1.60;99.90;;;;;;5057103;28;20445;-85
2021/12/08 01:07:09;;;;;;;4.53;2.67;;;-1.60;99.90;;;;;;5056980;28;20044;-83
2021/12/08 01:09:35;;;;;;;3.40;2.33;;;-1.60;99.90;;;;;;5055936;28;20028;-84
2021/12/08 01:12:02;;;;;;;5.20;2.90;;;-1.60;99.90;;;;;;5056061;28;20036;-83
2021/12/08 01:14:34;;;;;;;3.78;2.63;;;-1.60;99.90;;;;;;5055833;28;20028;-83
2021/12/08 01:17:01;;;;;;;6.07;3.05;;;-1.70;99.90;;;;;;5073233;28;20025;-82
2021/12/08 01:19:27;;;;;;;5.00;2.88;;;-1.70;99.90;;;;;;5068246;28;20037;-84
2021/12/08 01:21:53;;;;;;;6.20;3.00;;;-1.70;99.90;;;;;;5036682;28;20013;-83
2021/12/08 01:24:19;;;;;;;4.22;2.58;;;-1.70;99.90;;;;;;5037115;28;20093;-83
2021/12/08 01:26:45;;;;;;;6.32;2.70;;;-1.70;99.90;;;;;;5043923;28;20067;-85
2021/12/08 01:29:12;;;;;;;5.68;2.50;;;-1.70;99.90;;;;;;5056328;28;20028;-86
2021/12/08 01:31:41;;;;;;;4.45;2.83;;;-1.70;99.90;;;;;;5073689;28;20029;-83
2021/12/08 01:34:09;;;;;;;3.58;2.17;;;-1.70;99.90;;;;;;5073273;28;20039;-85
2021/12/08 01:36:36;;;;;;;3.75;2.38;;;-1.60;99.90;;;;;;5056348;28;20040;-83
2021/12/08 01:39:04;;;;;;;4.28;2.15;;;-1.60;99.90;;;;;;5073806;28;20020;-83
2021/12/08 01:41:30;;;;;;;4.53;2.35;;;-1.50;99.90;;;;;;5055403;28;20483;-83
2021/12/08 01:46:40;;;;;;;4.07;2.00;;;-1.50;99.90;;;;;;5076466;28;20056;-84
2021/12/08 01:49:06;;;;;;;2.88;1.98;;;-1.50;99.90;;;;;;5046155;28;20029;-83
2021/12/08 01:51:33;;;;;;;6.15;2.40;;;-1.50;99.90;;;;;;5035954;28;20022;-84
2021/12/08 01:54:01;;;;;;;2.30;1.55;;;-1.50;99.90;;;;;;5025278;28;20036;-82
2021/12/08 01:56:30;;;;;;;2.38;1.77;;;-1.50;99.90;;;;;;5027650;28;20036;-82
2021/12/08 01:58:56;;;;;;;3.00;1.98;;;-1.50;99.90;;;;;;5027550;28;20168;-83
2021/12/08 02:01:27;;;;;;;5.10;2.17;;;-1.60;99.90;;;;;;5027831;28;20037;-83
2021/12/08 02:03:54;;;;;;;2.70;2.30;;;-1.60;99.90;;;;;;5028283;28;20040;-82
2021/12/08 02:06:23;;;;;;;5.60;2.17;;;-1.60;99.90;;;;;;5046988;28;20072;-84
2021/12/08 02:08:52;;;;;;;3.42;2.20;;;-1.70;99.90;;;;;;5029262;28;20033;-83
2021/12/08 02:11:20;;;;;;;3.00;1.95;;;-1.70;99.90;;;;;;5029490;28;20301;-83
2021/12/08 02:13:46;;;;;;;5.65;1.95;;;-1.80;99.90;;;;;;5030879;28;20025;-83
2021/12/08 02:16:14;;;;;;;5.35;2.00;;;-1.70;99.90;;;;;;5060184;28;20392;-83
2021/12/08 02:18:43;;;;;;;6.00;2.15;;;-1.80;99.90;;;;;;5040098;28;20033;-84
2021/12/08 02:21:26;;;;;;;3.15;1.63;;;-1.70;99.90;;;;;;5050704;28;20029;-84
2021/12/08 02:23:54;;;;;;;3.05;1.77;;;-1.70;99.90;;;;;;5070218;28;20084;-83
2021/12/08 02:26:20;;;;;;;5.20;2.05;;;-1.70;99.90;;;;;;5052851;28;20036;-82
2021/12/08 02:28:47;;;;;;;3.78;2.15;;;-1.60;99.90;;;;;;5053504;28;20092;-82
2021/12/08 02:31:16;;;;;;;2.85;1.90;;;-1.50;99.90;;;;;;5049963;28;20025;-83
2021/12/08 02:47:52;;;;;;;2.65;1.33;;;-1.00;99.90;;;;;;5058368;28;20092;-84
2021/12/08 02:50:22;;;;;;;2.40;1.30;;;-1.00;99.80;;;;;;5054335;28;20028;-83
2021/12/08 02:52:48;;;;;;;3.15;1.40;;;-1.10;99.70;;;;;;5053206;28;20029;-82
2021/12/08 02:55:13;;;;;;;3.40;1.63;;;-1.20;99.70;;;;;;5054141;28;20029;-84
2021/12/08 02:57:39;;;;;;;2.10;1.40;;;-1.20;99.70;;;;;;5053925;28;20029;-84
2021/12/08 03:00:12;;;;;;;2.22;1.30;;;-1.20;99.80;;;;;;5072472;28;20033;-83
2021/12/08 03:02:38;;;;;;;2.08;1.52;;;-1.20;99.80;;;;;;5053931;28;20021;-82
2021/12/08 03:05:05;;;;;;;1.80;1.30;;;-1.20;99.80;;;;;;5053696;28;20072;-82
2021/12/08 03:07:31;;;;;;;1.98;1.45;;;-1.10;99.80;;;;;;5053198;28;20044;-83
2021/12/08 03:10:19;;;;;;;2.42;1.52;;;-1.10;99.60;;;;;;5054931;28;20024;-83
2021/12/08 03:12:45;;;;;;;1.38;1.23;;;-1.00;99.50;;;;;;5053660;28;20031;-82
2021/12/08 03:15:12;;;;;;;2.67;1.30;;;-0.90;99.30;;;;;;5071915;28;20028;-83
2021/12/08 03:17:38;;;;;;;2.22;1.58;;;-0.80;98.90;;;;;;5056664;28;20076;-84
2021/12/08 03:20:11;;;;;;;2.20;1.38;;;-0.80;98.70;;;;;;5042318;28;20029;-84
2021/12/08 03:22:43;;;;;;;1.40;1.10;;;-0.70;98.40;;;;;;5051359;28;20071;-84
2021/12/08 03:25:12;;;;;;;3.13;1.57;;;-0.70;98.10;;;;;;5052000;28;20014;-84
2021/12/08 03:27:46;;;;;;;1.75;1.20;;;-0.70;97.90;;;;;;5034038;28;20033;-84
2021/12/08 03:30:20;;;;;;;2.22;1.42;;;-0.60;97.80;;;;;;5051857;28;20440;-83
2021/12/08 03:32:46;;;;;;;1.95;1.40;;;-0.60;97.60;;;;;;5044332;28;20022;-83
2021/12/08 03:35:17;;;;;;;2.35;1.55;;;-0.60;97.30;;;;;;5036045;28;20025;-84
2021/12/08 03:37:46;;;;;;;1.80;1.30;;;-0.50;97.00;;;;;;5053626;28;20021;-82
2021/12/08 03:40:18;;;;;;;3.08;1.90;;;-0.50;96.80;;;;;;5036207;28;20029;-83
2021/12/08 03:42:44;;;;;;;;;;;-0.50;96.70;;;;;;5052429;28;20009;-84
2021/12/08 03:45:21;;;;;;;1.52;1.17;;;-0.50;96.60;;;;;;5035373;28;19932;-82
2021/12/08 03:47:59;;;;;;;2.75;1.20;;;-0.40;96.40;;;;;;5060555;28;20039;-85
2021/12/08 03:50:28;;;;;;;1.83;1.20;;;-0.40;96.30;;;;;;5036193;28;20035;-81
2021/12/08 03:52:54;;;;;;;2.13;1.38;;;-0.40;96.30;;;;;;5042220;28;20033;-83
2021/12/08 03:55:20;;;;;;;1.77;1.15;;;-0.30;96.30;;;;;;5040682;28;20035;-82
2021/12/08 03:57:46;;;;;;;1.85;1.17;;;-0.30;96.10;;;;;;5058641;28;20029;-82
2021/12/08 04:00:15;;;;;;;1.73;1.27;;;-0.30;95.90;;;;;;5058109;28;20025;-82
2021/12/08 04:02:41;;;;;;;2.00;1.30;;;-0.30;95.80;;;;;;5038124;28;20116;-83
2021/12/08 04:05:08;;;;;;;2.08;1.40;;;-0.30;95.70;;;;;;5061262;28;20051;-82
2021/12/08 04:07:36;;;;;;;3.92;1.67;;;-0.20;95.60;;;;;;5061684;28;20412;-82
2021/12/08 04:10:03;;;;;;;2.85;1.88;;;-0.20;95.50;;;;;;5044389;28;20051;-83
2021/12/08 04:12:29;;;;;;;2.67;1.58;;;-0.30;94.50;;;;;;5062354;28;20469;-82
2021/12/08 04:14:59;;;;;;;3.63;1.70;;;-0.30;94.90;;;;;;5062348;28;20456;-83
2021/12/08 04:17:39;;;;;;;3.85;1.70;;;-0.30;95.00;;;;;;5053556;28;20028;-83
2021/12/08 04:20:23;;;;;;;3.47;1.50;;;-0.20;95.00;;;;;;5026123;28;20041;-82
2021/12/08 04:22:51;;;;;;;2.08;1.30;;;-0.20;95.00;;;;;;5024228;28;20057;-83
2021/12/08 04:25:21;;;;;;;3.20;1.88;;;-0.20;94.90;;;;;;5042442;28;20022;-83
2021/12/08 04:27:50;;;;;;;2.00;1.70;;;-0.10;94.90;;;;;;5051420;28;20075;-82
2021/12/08 04:30:29;;;;;;;1.92;1.33;;;-0.10;95.00;;;;;;5046061;28;20025;-82
2021/12/08 04:32:56;;;;;;;2.72;1.40;;;-0.10;94.90;;;;;;5066881;28;20021;-83
2021/12/08 04:35:23;;;;;;;2.33;1.40;;;-0.20;94.80;;;;;;5061078;28;20033;-83
2021/12/08 04:37:54;;;;;;;2.95;1.70;;;-0.20;94.80;;;;;;5044545;28;20036;-83
2021/12/08 04:40:54;;;;;;;2.45;1.88;;;-0.20;94.90;;;;;;5045256;28;20115;-83
2021/12/08 04:51:47;;;;;;;2.38;1.75;;;-0.20;95.00;;;;;;5044379;28;20028;-83
2021/12/08 05:01:11;;;;;;;5.78;2.53;;;-0.20;94.50;;;;;;5043712;28;20136;-83
2021/12/08 05:06:52;;;;;;;3.00;1.70;;;-0.20;94.70;;;;;;5034623;28;20045;-83
2021/12/08 05:09:23;;;;;;;2.85;1.70;;;-0.20;94.90;;;;;;5026516;28;20029;-83
2021/12/08 05:11:55;;;;;;;2.97;1.85;;;-0.10;95.00;;;;;;5043073;28;20022;-83
2021/12/08 05:14:28;;;;;;;4.10;2.17;;;0.00;95.10;;;;;;5025223;28;20029;-83
2021/12/08 05:17:05;;;;;;;;;;;-0.10;94.80;;;;;;5023880;28;20088;-83
2021/12/08 05:19:33;;;;;;;2.63;1.67;;;-0.10;94.80;;;;;;5048876;28;19905;-83
2021/12/08 05:22:16;;;;;;;4.03;1.85;;;0.00;94.80;;;;;;5063864;28;20106;-83
2021/12/08 05:24:44;;;;;;;;;;;0.00;94.60;;;;;;5048432;28;20033;-83
2021/12/08 05:27:21;;;;;;;1.83;1.60;;;0.00;94.60;;;;;;5048346;28;19909;-83
2021/12/08 05:29:54;;;;;;;2.30;1.52;;;0.00;94.60;;;;;;5063307;28;20071;-83
2021/12/08 05:32:21;;;;;;;2.15;1.38;;;-0.10;94.60;;;;;;5059504;28;20028;-82
2021/12/08 05:34:48;;;;;;;3.00;1.70;;;0.00;94.70;;;;;;5059678;28;20017;-83
2021/12/08 05:37:16;;;;;;;2.50;1.60;;;0.10;94.90;;;;;;5060075;28;20021;-83
2021/12/08 05:39:43;;;;;;;3.65;2.03;;;0.20;95.00;;;;;;5042885;28;20063;-83
2021/12/08 05:42:14;;;;;;;2.65;1.70;;;0.20;94.90;;;;;;5060795;28;20021;-83
2021/12/08 05:44:40;;;;;;;2.22;1.50;;;0.30;95.00;;;;;;5061491;28;20519;-83
2021/12/08 05:47:19;;;;;;;2.70;1.75;;;0.30;95.10;;;;;;5071782;23;20041;-80
2021/12/08 05:49:46;;;;;;;2.35;1.80;;;0.40;95.00;;;;;;5038666;28;20021;-84
2021/12/08 05:52:12;;;;;;;1.90;1.50;;;0.40;94.90;;;;;;5065434;28;20032;-82
2021/12/08 05:54:42;;;;;;;3.28;1.80;;;0.40;94.90;;;;;;5059867;28;20017;-79
2021/12/08 05:57:39;;;;;;;2.67;2.05;;;0.40;94.80;;;;;;5053773;28;20033;-84
2021/12/08 06:00:21;;;;;;;4.82;2.47;;;0.40;94.90;;;;;;5042156;28;20036;-84
2021/12/08 06:02:47;;;;;;;3.30;1.83;;;0.40;94.80;;;;;;5043215;28;20028;-84
2021/12/08 06:05:14;;;;;;;4.97;2.00;;;0.40;94.90;;;;;;5042610;28;20033;-84
2021/12/08 06:07:42;;;;;;;3.78;2.38;;;0.40;94.90;;;;;;5042842;28;20040;-82
2021/12/08 06:10:14;;;;;;;3.45;2.17;;;0.50;94.90;;;;;;5061584;28;20362;-82
2021/12/08 06:12:40;;;;;;;3.22;2.28;;;0.50;94.90;;;;;;5060689;28;20025;-85
2021/12/08 06:15:07;;;;;;;4.10;2.33;;;0.50;94.90;;;;;;5048516;28;20129;-85
2021/12/08 06:17:33;;;;;;;3.00;1.92;;;0.60;94.80;;;;;;5042302;28;20030;-84
2021/12/08 06:19:59;;;;;;;4.68;2.60;;;0.70;94.70;;;;;;5042653;28;20430;-84
2021/12/08 06:22:27;;;;;;;3.35;1.83;;;0.70;94.60;;;;;;5024056;28;20033;-84
2021/12/08 06:24:53;;;;;;;3.30;2.05;;;0.70;94.30;;;;;;5047015;28;20056;-81
2021/12/08 06:27:20;;;;;;;2.40;1.58;;;0.80;94.30;;;;;;5033127;28;20049;-85
2021/12/08 06:29:50;;;;;;;2.90;1.73;;;0.80;94.30;;;;;;5033498;28;20103;-84
2021/12/08 06:32:17;;;;;;;3.05;1.58;;;0.80;94.20;;;;;;5029631;28;20041;-83
2021/12/08 06:34:47;;;;;;;3.13;1.85;;;0.80;94.00;;;;;;5028363;28;20093;-82
2021/12/08 06:37:26;;;;;;;2.55;1.73;;;0.90;93.90;;;;;;5046726;28;20055;-81
2021/12/08 06:40:24;;;;;;;1.75;1.50;;;0.90;93.80;;;;;;5028972;28;20043;-85
2021/12/08 06:42:54;;;;;;;3.45;1.67;;;0.90;93.90;;;;;;5040020;28;20095;-83
2021/12/08 06:45:27;;;;;;;5.80;1.63;;;0.90;93.90;;;;;;5048231;28;20171;-85
2021/12/08 06:47:55;;;;;;;2.50;1.70;;;0.90;93.90;;;;;;5030608;28;20040;-82
2021/12/08 06:50:29;;;;;;;2.00;1.27;;;1.00;94.00;;;;;;5066348;28;20025;-83
2021/12/08 06:52:56;;;;;;;1.95;1.35;;;1.10;94.00;;;;;;5055178;28;20026;-83
2021/12/08 06:55:36;;;;;;;2.33;1.30;;;1.10;93.90;;;;;;5029914;28;20030;-85
2021/12/08 06:58:20;;;;;;;2.90;2.08;;;1.20;93.80;;;;;;5049591;28;20100;-84
2021/12/08 07:06:18;;;;;;;3.38;1.63;;;1.30;93.70;;;;;;5047931;28;20026;-84
2021/12/08 07:08:53;;;;;;;2.17;1.58;;;1.40;93.60;;;;;;5028917;28;20036;-84
2021/12/08 07:11:22;;;;;;;2.75;1.30;;;1.40;93.50;;;;;;5047366;28;20021;-84
2021/12/08 07:13:53;;;;;;;5.28;1.60;;;1.50;93.40;;;;;;5036978;28;20076;-79
2021/12/08 07:16:28;;;;;;;2.55;1.40;;;1.50;93.30;;;;;;5038685;28;20060;-81
2021/12/08 07:19:01;;;;;;;2.65;1.30;;;1.50;93.30;;;;;;5038302;28;20446;-82
2021/12/08 07:21:33;;;;;;;4.10;1.20;;;1.60;93.30;;;;;;5038768;28;20071;-81
2021/12/08 07:24:18;;;;;;;3.33;1.75;;;1.60;93.30;;;;;;5039562;28;20083;-79
2021/12/08 07:26:45;;;;;;;3.78;1.88;;;1.60;93.20;;;;;;5033624;28;20355;-85
2021/12/08 07:29:15;;;;;;;2.47;1.55;;;1.60;92.80;;;;;;5027013;28;20036;-84
2021/12/08 07:31:48;;;;;;;2.67;1.60;;;1.60;92.80;;;;;;5026962;28;20052;-82
2021/12/08 07:34:19;;;;;;;1.55;1.45;;;1.60;92.70;;;;;;5043859;28;20036;-85
2021/12/08 07:36:53;;;;;;;6.18;2.38;;;1.60;92.70;;;;;;5042481;28;20163;-84
2021/12/08 07:39:26;;;;;;;2.10;1.58;;;1.70;92.60;;;;;;5031118;28;20022;-82
2021/12/08 07:41:58;;;;;;;4.85;1.65;;;1.80;92.40;;;;;;5032240;28;20026;-83
2021/12/08 07:44:24;;;;;;;2.30;1.60;;;2.00;92.30;;;;;;5030530;28;20056;-80
2021/12/08 07:47:13;;;;;;;3.00;1.55;;;2.10;92.00;;;;;;5029486;28;20041;-81
2021/12/08 07:49:49;;;;;;;2.58;1.38;;;2.20;91.70;;;;;;5059148;28;20013;-81
2021/12/08 07:52:40;;;;;;;2.15;1.45;;;2.20;91.50;;;;;;5050945;28;20033;-80
2021/12/08 07:55:15;;;;;;;3.67;1.65;;;2.30;91.50;;;;;;5030678;28;20032;-81
2021/12/08 07:57:42;;;;;;;3.13;1.75;;;2.40;91.50;;;;;;5046410;28;20022;-81
2021/12/08 08:00:15;;;;;;;1.90;1.38;;;2.50;91.40;;;;;;5029055;28;20026;-80
2021/12/08 08:02:41;;;;;;;;;;;2.60;91.30;;;;;;5028790;28;20500;-81
2021/12/08 08:05:09;;;;;;;5.38;1.92;;;2.70;91.10;;;;;;5027761;28;19916;-81
2021/12/08 08:07:35;;;;;;;1.83;1.48;;;2.70;90.90;;;;;;5046780;28;20109;-80
2021/12/08 08:10:02;;;;;;;2.95;1.48;;;2.70;91.00;;;;;;5051192;28;20018;-81
2021/12/08 08:12:33;;;;;;;2.13;1.35;;;2.70;91.10;;;;;;5031970;28;20061;-81
2021/12/08 08:15:04;;;;;;;4.55;1.73;;;2.70;91.10;;;;;;5047620;28;20020;-81
2021/12/08 08:17:36;;;;;;;6.93;2.30;;;2.70;90.80;;;;;;5037743;28;20050;-80
2021/12/08 08:20:11;;;;;;;7.63;2.10;;;2.50;90.60;;;;;;5054389;28;20025;-81
2021/12/08 08:22:37;;;;;;;6.47;2.30;;;2.50;90.10;;;;;;5048232;28;20358;-82
2021/12/08 08:25:06;;;;;;;6.93;2.17;;;2.40;90.20;;;;;;5029893;28;20041;-81
2021/12/08 08:27:32;;;;;;;3.20;1.90;;;2.40;90.40;;;;;;5029587;28;20026;-81
2021/12/08 08:29:58;;;;;;;4.32;2.15;;;2.40;90.50;;;;;;5044174;28;20022;-80
2021/12/08 08:32:33;;;;;;;5.25;2.13;;;2.50;90.60;;;;;;5045262;28;20057;-81
2021/12/08 08:35:05;;;;;;;4.60;1.52;;;2.50;90.50;;;;;;5046380;28;20041;-80
2021/12/08 08:37:32;;;;;;;4.25;2.45;;;2.50;90.60;;;;;;5045981;28;20029;-80
2021/12/08 08:40:00;;;;;;;5.45;1.88;;;2.50;90.50;;;;;;5054683;28;20104;-80
2021/12/08 08:42:34;;;;;;;5.60;1.80;;;2.50;90.40;;;;;;5038211;28;20026;-79
2021/12/08 08:45:05;;;;;;;5.68;2.53;;;2.50;90.70;;;;;;5043657;28;20025;-80
2021/12/08 08:47:37;;;;;;;5.60;2.22;;;2.50;90.90;;;;;;5043495;28;20030;-81
2021/12/08 08:50:07;;;;;;;3.42;1.75;;;2.40;91.00;;;;;;5051261;28;20002;-78
2021/12/08 08:52:39;;;;;;;2.72;1.65;;;2.50;91.30;;;;;;5050629;28;20097;-81
2021/12/08 08:55:24;;;;;;;3.72;1.88;;;2.60;91.20;;;;;;5054879;28;20017;-79
2021/12/08 08:57:50;;;;;;;3.55;1.80;;;2.60;91.00;;;;;;5040954;28;20113;-80
2021/12/08 09:00:26;;;;;;;1.90;1.42;;;2.60;91.00;;;;;;5037144;28;20030;-80
2021/12/08 09:02:54;;;;;;;3.35;1.30;;;2.70;91.30;;;;;;5039595;28;20013;-80
2021/12/08 09:05:25;;;;;;;2.47;1.50;;;2.80;91.40;;;;;;5035548;28;20021;-82
2021/12/08 09:07:54;;;;;;;2.10;1.30;;;2.90;91.30;;;;;;5031000;28;20037;-81
2021/12/08 09:10:28;;;;;;;2.58;1.58;;;3.00;91.20;;;;;;5030630;28;20271;-81
2021/12/08 09:13:10;;;;;;;3.67;2.00;;;3.00;91.10;;;;;;5031639;28;20017;-80
2021/12/08 09:15:45;;;;;;;4.32;2.00;;;2.90;90.90;;;;;;5058539;28;20481;-81
2021/12/08 09:18:23;;;;;;;5.75;2.15;;;2.90;91.10;;;;;;5062118;28;20059;-80
2021/12/08 09:20:59;;;;;;;4.95;2.15;;;2.80;91.30;;;;;;5046838;28;20090;-80
2021/12/08 09:23:33;;;;;;;2.97;2.00;;;2.90;91.50;;;;;;5048600;28;20076;-80
2021/12/08 09:26:13;;;;;;;4.22;2.28;;;2.80;91.70;;;;;;5033147;28;20033;-79
2021/12/08 09:28:50;;;;;;;2.75;1.75;;;2.90;91.80;;;;;;5028231;28;20030;-80
2021/12/08 09:31:31;;;;;;;2.97;2.00;;;3.10;91.90;;;;;;5010652;28;20383;-80
2021/12/08 09:34:08;;;;;;;3.67;2.03;;;3.20;91.80;;;;;;5010544;28;20032;-80
2021/12/08 09:36:42;;;;;;;4.15;2.22;;;3.20;91.20;;;;;;5028796;28;20014;-81
2021/12/08 09:39:23;;;;;;;6.20;2.50;;;3.30;91.20;;;;;;5026939;28;20369;-81
2021/12/08 09:42:03;;;;;;;7.97;2.50;;;3.30;91.20;;;;;;5047675;28;20044;-80
2021/12/08 09:44:37;;;;;;;8.27;2.40;;;3.30;91.00;;;;;;5051859;28;20031;-81
2021/12/08 09:47:03;;;;;;;4.07;2.22;;;3.10;90.40;;;;;;5063668;28;20030;-78
2021/12/08 09:49:29;;;;;;;6.22;2.80;;;3.10;90.60;;;;;;5039323;28;20038;-80
2021/12/08 09:51:59;;;;;;;4.10;2.72;;;3.10;90.90;;;;;;5055854;28;20022;-80
2021/12/08 09:54:25;;;;;;;5.15;2.10;;;3.20;91.00;;;;;;5057365;28;20026;-79
2021/12/08 09:56:53;;;;;;;7.60;3.20;;;3.40;91.10;;;;;;5057119;28;20037;-79
2021/12/08 09:59:20;;;;;;;7.50;2.88;;;3.60;90.80;;;;;;5057458;28;20024;-79
2021/12/08 10:01:47;;;;;;;8.38;2.88;;;3.70;90.10;;;;;;5046460;28;20025;-79
2021/12/08 10:04:15;;;;;;;7.68;3.00;;;3.60;89.60;;;;;;5037280;28;20034;-81
2021/12/08 10:06:45;;;;;;;8.90;3.05;;;3.60;90.10;;;;;;5019570;28;20063;-80
2021/12/08 10:09:11;;;;;;;8.75;2.80;;;3.70;90.30;;;;;;5019811;28;20042;-80
2021/12/08 10:11:37;;;;;;;5.07;2.72;;;3.80;90.30;;;;;;5036315;28;20053;-80
2021/12/08 10:14:03;;;;;;;14.43;3.70;;;3.90;90.10;;;;;;5043802;28;20030;-80
2021/12/08 10:16:32;;;;;;;5.90;2.20;;;3.80;89.30;;;;;;5069878;28;20017;-79
2021/12/08 10:18:58;;;;;;;8.68;3.00;;;3.70;89.20;;;;;;5076644;28;20013;-79
2021/12/08 10:21:37;;;;;;;5.63;2.75;;;3.60;89.50;;;;;;5076914;28;20032;-80
2021/12/08 10:24:16;;;;;;;5.55;2.90;;;3.50;90.00;;;;;;5076551;28;20077;-79
2021/12/08 10:26:42;;;;;;;11.43;2.85;;;3.50;90.10;;;;;;5065133;28;20141;-80
2021/12/08 10:29:08;;;;;;;11.40;3.10;;;3.50;90.30;;;;;;5049165;28;20033;-79
2021/12/08 10:31:48;;;;;;;10.40;3.28;;;3.50;90.00;;;;;;5053408;28;20545;-82
2021/12/08 10:36:58;;;;;;;7.55;2.72;;;3.40;89.50;;;;;;5050021;28;20036;-81
2021/12/08 10:39:42;;;;;;;5.10;2.80;;;3.30;90.10;;;;;;5015205;28;20030;-81
2021/12/08 10:42:14;;;;;;;6.43;2.92;;;3.20;90.40;;;;;;5026571;28;20013;-82
2021/12/08 10:45:22;;;;;;;6.05;2.85;;;3.20;90.70;;;;;;5025500;28;20022;-83
2021/12/08 10:47:49;;;;;;;6.88;2.70;;;3.20;90.60;;;;;;5022663;28;20132;-81
2021/12/08 10:56:05;;;;;;;6.97;2.80;;;3.10;90.50;;;;;;5025619;28;20029;-81
2021/12/08 10:58:34;;;;;;;7.53;2.78;;;3.10;90.40;;;;;;5024464;28;20036;-83
2021/12/08 11:01:11;;;;;;;9.60;2.88;;;3.10;90.40;;;;;;5024381;28;20032;-82
2021/12/08 11:03:39;;;;;;;7.47;2.95;;;3.10;90.50;;;;;;5024690;28;20026;-83
2021/12/08 11:06:06;;;;;;;8.45;2.97;;;3.00;90.60;;;;;;5004669;28;20406;-81
2021/12/08 11:08:32;;;;;;;4.63;2.65;;;2.90;90.70;;;;;;5021554;28;20030;-83
2021/12/08 11:11:32;;;;;;;4.25;2.70;;;2.80;91.10;;;;;;5005655;28;20046;-82
2021/12/08 11:14:04;;;;;;;6.20;3.03;;;2.80;91.40;;;;;;5013498;28;20148;-83
2021/12/08 11:16:34;;;;;;;5.82;2.50;;;2.90;91.60;;;;;;5053756;28;20029;-83
2021/12/08 11:19:10;;;;;;;4.32;2.45;;;2.90;91.60;;;;;;5061788;28;20037;-82
2021/12/08 11:21:40;;;;;;;19.50;4.18;;;2.90;91.70;;;;;;5065532;28;20052;-83
2021/12/08 11:24:31;;;;;;;6.18;2.72;;;2.90;91.40;;;;;;5068383;28;20025;-82
2021/12/08 11:26:59;;;;;;;7.47;2.80;;;2.90;91.60;;;;;;5050115;28;20029;-83
2021/12/08 11:29:27;;;;;;;8.95;2.67;;;2.80;91.80;;;;;;5066270;28;20020;-83
2021/12/08 11:31:54;;;;;;;6.88;2.88;;;2.70;91.90;;;;;;5029025;28;20045;-81
2021/12/08 11:34:25;;;;;;;4.53;2.60;;;2.60;92.20;;;;;;5015577;28;20045;-83
2021/12/08 11:37:02;;;;;;;5.93;3.00;;;2.60;92.80;;;;;;5013100;28;20022;-83
2021/12/08 11:39:37;;;;;;;11.00;2.22;;;2.60;92.50;;;;;;5031317;28;20087;-82
2021/12/08 11:42:10;;;;;;;5.80;2.60;;;2.70;92.80;;;;;;5016110;28;20036;-82
2021/12/08 11:44:37;;;;;;;;;;;2.80;92.70;;;;;;5053999;28;20280;-82
2021/12/08 11:47:09;;;;;;;6.72;2.63;;;3.00;92.80;;;;;;5061280;28;19917;-83
2021/12/08 11:49:44;;;;;;;5.88;2.85;;;3.00;92.30;;;;;;5034907;28;20021;-81
2021/12/08 11:52:15;;;;;;;5.10;2.25;;;3.10;92.20;;;;;;5051820;28;20104;-80
2021/12/08 11:55:01;;;;;;;3.70;2.20;;;3.10;92.30;;;;;;5034684;28;20021;-80
2021/12/08 11:57:33;;;;;;;6.22;2.83;;;3.00;92.10;;;;;;5050437;28;20032;-81
2021/12/08 12:00:05;;;;;;;8.73;3.03;;;2.90;91.90;;;;;;5054022;28;20021;-81
2021/12/08 12:02:36;;;;;;;7.60;2.50;;;2.90;92.30;;;;;;5050953;28;20029;-82
2021/12/08 12:05:06;;;;;;;4.50;2.70;;;2.80;92.50;;;;;;5037246;28;20084;-82
2021/12/08 12:07:32;;;;;;;5.22;2.67;;;2.80;92.80;;;;;;5029150;28;20014;-81
2021/12/08 12:09:58;;;;;;;5.75;2.70;;;2.80;93.00;;;;;;5009881;28;20022;-81
2021/12/08 12:12:24;;;;;;;8.55;2.80;;;2.80;92.90;;;;;;5025497;28;20033;-81
2021/12/08 12:14:50;;;;;;;6.18;2.80;;;2.80;92.80;;;;;;5027962;28;20049;-82
2021/12/08 12:17:16;;;;;;;4.78;2.65;;;2.70;92.90;;;;;;5053620;28;20025;-82
2021/12/08 12:19:49;;;;;;;8.80;2.60;;;2.70;93.00;;;;;;5044175;28;20029;-82
2021/12/08 12:22:44;;;;;;;8.70;2.40;;;2.60;93.20;;;;;;5042668;28;20036;-83
2021/12/08 12:25:28;;;;;;;5.60;2.28;;;2.60;93.30;;;;;;5044153;28;20061;-81
2021/12/08 12:28:51;;;;;;;4.97;2.40;;;2.50;93.70;;;;;;5051741;28;20036;-80
2021/12/08 12:31:36;;;;;;;4.00;2.30;;;2.40;94.20;;;;;;4972051;29;20368;-82
2021/12/08 12:34:02;;;;;;;8.63;2.67;;;2.40;94.90;;;;;;4955809;28;20027;-80
2021/12/08 12:36:32;;;;;;;6.18;2.40;;;2.50;95.30;;;;;;4998907;28;20061;-80
2021/12/08 12:39:16;;;;;;;3.92;2.03;;;2.60;95.50;;;;;;5026181;28;20457;-80
2021/12/08 12:41:44;;;;;;;5.38;2.83;;;2.60;95.70;;;;;;5023769;28;20026;-81
2021/12/08 12:44:25;;;;;;;7.18;3.03;;;2.60;96.00;;;;;;5052637;28;20063;-79
2021/12/08 12:49:33;;;;;;;3.78;2.30;;;2.70;96.40;;;;;;5067752;28;20021;-80
2021/12/08 12:52:01;;;;;;;4.50;2.28;;;2.80;96.30;;;;;;5050138;28;20140;-80
2021/12/08 12:54:28;;;;;;;3.72;2.00;;;2.80;96.10;;;;;;5052640;28;20017;-80
2021/12/08 12:56:56;;;;;;;2.78;2.00;;;3.00;96.20;;;;;;5055886;28;20079;-82
2021/12/08 12:59:27;;;;;;;2.78;1.85;;;3.30;95.80;;;;;;5052478;28;20029;-80
2021/12/08 13:02:13;;;;;;;4.25;2.10;;;3.50;95.30;;;;;;5061037;28;20044;-82
2021/12/08 13:04:54;;;;;;;3.75;1.67;;;3.70;94.60;;;;;;5052347;28;20021;-81
2021/12/08 13:07:20;;;;;;;6.18;2.35;;;3.90;94.30;;;;;;5051183;28;20089;-81
2021/12/08 13:09:50;;;;;;;3.08;1.73;;;3.80;93.70;;;;;;5058856;28;20017;-82
2021/12/08 13:12:25;;;;;;;4.20;2.20;;;3.60;93.80;;;;;;5050440;28;20035;-82
2021/12/08 13:15:12;;;;;;;7.45;2.13;;;3.40;94.00;;;;;;5052875;28;20022;-81
2021/12/08 13:17:38;;;;;;;3.20;1.80;;;3.30;94.40;;;;;;5049821;28;20080;-81
2021/12/08 13:20:09;;;;;;;4.97;1.92;;;3.30;94.80;;;;;;5046026;28;20079;-80
2021/12/08 13:23:00;;;;;;;3.50;2.20;;;3.30;94.50;;;;;;5061673;28;20025;-81
2021/12/08 13:28:18;;;;;;;5.25;2.20;;;3.00;94.40;;;;;;5061636;28;20057;-81
2021/12/08 13:30:59;;;;;;;7.60;2.10;;;2.90;94.70;;;;;;5061607;28;20017;-83
2021/12/08 13:33:34;;;;;;;2.88;1.98;;;2.80;95.20;;;;;;5043582;28;20075;-81
2021/12/08 13:36:31;;;;;;;6.13;1.88;;;2.80;95.60;;;;;;5061774;28;20025;-81
2021/12/08 13:38:56;;;;;;;3.47;1.80;;;2.80;95.60;;;;;;5065597;28;20075;-81
2021/12/08 13:41:27;;;;;;;5.03;1.90;;;2.80;95.80;;;;;;5057804;28;20375;-81
2021/12/08 13:43:54;;;;;;;3.08;2.13;;;2.90;95.90;;;;;;5045950;28;20048;-81
2021/12/08 13:46:41;;;;;;;2.65;2.00;;;2.90;96.10;;;;;;5053589;28;20027;-81
2021/12/08 13:49:31;;;;;;;3.55;2.50;;;2.90;96.20;;;;;;5040044;28;20484;-81
2021/12/08 13:52:08;;;;;;;5.43;2.85;;;2.90;96.30;;;;;;5047535;28;20025;-81
2021/12/08 13:54:36;;;;;;;4.50;2.40;;;2.90;96.40;;;;;;5067192;28;20021;-81
2021/12/08 13:57:05;;;;;;;4.55;2.30;;;2.90;96.20;;;;;;5054797;28;20005;-80
2021/12/08 13:59:58;;;;;;;5.70;2.17;;;2.80;96.10;;;;;;5030378;28;20375;-81
2021/12/08 14:02:29;;;;;;;7.95;2.55;;;2.80;95.80;;;;;;5049006;28;20121;-81
2021/12/08 14:05:03;;;;;;;4.50;2.60;;;2.80;95.70;;;;;;5048849;28;20112;-81
2021/12/08 14:07:30;;;;;;;3.47;2.40;;;2.80;95.70;;;;;;5025990;28;20021;-81
2021/12/08 14:10:01;;;;;;;5.55;1.85;;;2.80;95.70;;;;;;5026854;28;20511;-81
2021/12/08 14:12:42;;;;;;;2.58;1.88;;;2.90;95.70;;;;;;5007149;28;20032;-81
2021/12/08 14:15:08;;;;;;;4.40;2.42;;;3.20;95.50;;;;;;5026830;28;20017;-82